Terminal Aerodrome Forecast
Issued by NWS Wakefield, VA

Home | Current Version | Previous Version | Text Only | Print | Product List | Glossary On
Versions: 1 2 3 4 5 6 7 8 9 10 11 12 13 14 15 16 17 18 19 20
000
FTUS41 KAKQ 180529
TAFSBY
TAF
KSBY 180529Z 1806/1906 26004KT P6SM OVC004
     FM180800 30004KT P6SM OVC015
     FM180900 28008KT P6SM BKN035
     FM181200 32008KT P6SM SCT035
     FM182100 32004KT P6SM SKC=

USA.gov is the U.S. government's official web portal to all federal, state and local government web resources and services.